KEND/END METAR and TAF weather

Enter ICAO airport designator
Station Type Date Time Source
KEND METAR 2021/09/28 15:56 UTC NOAA

KEND 281556Z AUTO 16009KT 10SM CLR 27/16 A2987 RMK AO2 SLP103 T02680155 $


Station Type Date Time Source
KEND Decoded METAR 2021/09/28 15:56 UTC NOAA

Vance Air Force Base / Enid, OK, United States (KEND) 36-20N 097-55W
Sep 28, 2021 - 11:56 AM EDT / 2021.09.28 1556 UTC
Wind: from the SSE (160 degrees) at 10 MPH (9 KT):0
Visibility: 10 mile(s):0
Sky conditions: clear
Temperature: 80.2 F (26.8 C)
Dew Point: 59.9 F (15.5 C)
Relative Humidity: 49%
Pressure (altimeter): 29.87 in. Hg (1011 hPa)
ob: KEND 281556Z AUTO 16009KT 10SM CLR 27/16 A2987 RMK AO2 SLP103 T02680155
cycle: 16

Station Type Date Time Source
KEND TAF 2021/09/28 10:12 UTC NOAA

TAF KEND 281000Z 2810/2916 17011KT 9999 SCT200 QNH2987INS
BECMG 2915/2916 17015G25KT 9999 BKN120 QNH2982INS TX32/2821Z TN19/2813Z

Example: see airport list